PBD763 UNKL-UACC
Flight info
| Callsign | PBD763 |
|---|---|
| Flight time | 2h 22m |
| Altitude | 380 |
| Route | ROVNO R823 BAKMI B156 NOSPI G121 AMRAD A366 LAGMO L988 ABELI N996 BOLSU |
| Aircraft | B38M/M-VGDW/C |
Departure
| Time | 2026-05-09 06:20 |
|---|---|
| Airport | Krasnoyarsk International Airport (UNKL) |
Arrival
| Time | 2026-05-09 08:43 |
|---|---|
| Airport | Nursultan Nazarbayev International Airport (UACC) |
| Time | Latitude | Longitude | Altitude | Speed | Heading |
|---|---|---|---|---|---|
| 2026-05-09 05:33 | 56.18083 | 92.47449 | 959 ft | 0 kts | 25° |
| 2026-05-09 06:15 | 56.18090 | 92.47455 | 982 ft | 3 kts | 25° |
| 2026-05-09 06:16 | 56.18114 | 92.47477 | 958 ft | 5 kts | 37° |
| 2026-05-09 06:16 | 56.18124 | 92.47535 | 959 ft | 5 kts | 102° |
| 2026-05-09 06:16 | 56.18109 | 92.47599 | 959 ft | 6 kts | 112° |
| 2026-05-09 06:16 | 56.18091 | 92.47676 | 959 ft | 6 kts | 114° |
| 2026-05-09 06:17 | 56.18067 | 92.47744 | 957 ft | 7 kts | 129° |
| 2026-05-09 06:17 | 56.18039 | 92.47827 | 959 ft | 9 kts | 115° |
| 2026-05-09 06:17 | 56.18011 | 92.47933 | 957 ft | 10 kts | 128° |
| 2026-05-09 06:17 | 56.17946 | 92.47936 | 957 ft | 10 kts | 201° |
| 2026-05-09 06:18 | 56.17874 | 92.47882 | 957 ft | 12 kts | 203° |
| 2026-05-09 06:18 | 56.17793 | 92.47820 | 958 ft | 8 kts | 203° |
| 2026-05-09 06:18 | 56.17787 | 92.47815 | 959 ft | 0 kts | 203° |
| 2026-05-09 06:19 | 56.17786 | 92.47814 | 959 ft | 1 kts | 203° |
| 2026-05-09 06:19 | 56.17746 | 92.47784 | 958 ft | 9 kts | 203° |
| 2026-05-09 06:19 | 56.17673 | 92.47763 | 956 ft | 12 kts | 141° |
| 2026-05-09 06:19 | 56.17636 | 92.47900 | 957 ft | 13 kts | 112° |
| 2026-05-09 06:20 | 56.17520 | 92.48386 | 959 ft | 83 kts | 113° |
| 2026-05-09 06:20 | 56.17190 | 92.49790 | 957 ft | 157 kts | 111° |
| 2026-05-09 06:20 | 56.16722 | 92.51843 | 1326 ft | 194 kts | 112° |
| 2026-05-09 06:20 | 56.16194 | 92.54046 | 2542 ft | 183 kts | 113° |
| 2026-05-09 06:21 | 56.15668 | 92.56217 | 3360 ft | 201 kts | 114° |
| 2026-05-09 06:21 | 56.15083 | 92.58646 | 3895 ft | 224 kts | 114° |
| 2026-05-09 06:21 | 56.14423 | 92.61377 | 4366 ft | 254 kts | 114° |
| 2026-05-09 06:21 | 56.13702 | 92.64374 | 5151 ft | 268 kts | 115° |
| 2026-05-09 06:22 | 56.12928 | 92.67531 | 5893 ft | 285 kts | 118° |
| 2026-05-09 06:22 | 56.11790 | 92.70491 | 6741 ft | 290 kts | 140° |
| 2026-05-09 06:22 | 56.10077 | 92.72265 | 7650 ft | 287 kts | 169° |
| 2026-05-09 06:22 | 56.08132 | 92.72491 | 7947 ft | 277 kts | 195° |
| 2026-05-09 06:23 | 56.06375 | 92.71315 | 7986 ft | 267 kts | 217° |
| 2026-05-09 06:23 | 56.05013 | 92.69145 | 7984 ft | 261 kts | 233° |
| 2026-05-09 06:23 | 56.03797 | 92.66709 | 7992 ft | 263 kts | 231° |
| 2026-05-09 06:23 | 56.02568 | 92.64286 | 7992 ft | 263 kts | 231° |
| 2026-05-09 06:24 | 56.01339 | 92.61858 | 7984 ft | 263 kts | 231° |
| 2026-05-09 06:24 | 56.00113 | 92.59433 | 8001 ft | 263 kts | 231° |
| 2026-05-09 06:24 | 55.98884 | 92.57000 | 7984 ft | 263 kts | 231° |
| 2026-05-09 06:24 | 55.97657 | 92.54577 | 7993 ft | 263 kts | 231° |
| 2026-05-09 06:25 | 55.96428 | 92.52151 | 7994 ft | 264 kts | 231° |
| 2026-05-09 06:25 | 55.95197 | 92.49722 | 7995 ft | 264 kts | 232° |
| 2026-05-09 06:25 | 55.94187 | 92.47005 | 8469 ft | 260 kts | 244° |
| 2026-05-09 06:25 | 55.93336 | 92.44201 | 9489 ft | 263 kts | 244° |
| 2026-05-09 06:26 | 55.92451 | 92.41317 | 10351 ft | 268 kts | 243° |
| 2026-05-09 06:26 | 55.91516 | 92.38257 | 10876 ft | 287 kts | 243° |
| 2026-05-09 06:26 | 55.90539 | 92.35069 | 11363 ft | 305 kts | 244° |
| 2026-05-09 06:26 | 55.89503 | 92.31693 | 12009 ft | 316 kts | 244° |
| 2026-05-09 06:27 | 55.88444 | 92.28245 | 12922 ft | 318 kts | 244° |
| 2026-05-09 06:27 | 55.87371 | 92.24753 | 13731 ft | 324 kts | 244° |
| 2026-05-09 06:27 | 55.86280 | 92.21212 | 14466 ft | 327 kts | 244° |
| 2026-05-09 06:27 | 55.85179 | 92.17644 | 15183 ft | 331 kts | 244° |
| 2026-05-09 06:28 | 55.84068 | 92.14046 | 15917 ft | 334 kts | 244° |
| 2026-05-09 06:28 | 55.82950 | 92.10432 | 16602 ft | 337 kts | 244° |
| 2026-05-09 06:28 | 55.81804 | 92.06733 | 17332 ft | 340 kts | 244° |
| 2026-05-09 06:28 | 55.80657 | 92.03037 | 18015 ft | 343 kts | 244° |
| 2026-05-09 06:29 | 55.79497 | 91.99304 | 18622 ft | 347 kts | 244° |
| 2026-05-09 06:29 | 55.78321 | 91.95529 | 19217 ft | 350 kts | 244° |
| 2026-05-09 06:29 | 55.77137 | 91.91730 | 19795 ft | 352 kts | 244° |
| 2026-05-09 06:29 | 55.75944 | 91.87908 | 20395 ft | 355 kts | 244° |
| 2026-05-09 06:30 | 55.74742 | 91.84069 | 20956 ft | 358 kts | 244° |
| 2026-05-09 06:30 | 55.73529 | 91.80194 | 21516 ft | 361 kts | 244° |
| 2026-05-09 06:30 | 55.72301 | 91.76283 | 22064 ft | 364 kts | 244° |
| 2026-05-09 06:30 | 55.71066 | 91.72351 | 22625 ft | 366 kts | 243° |
| 2026-05-09 06:31 | 55.69820 | 91.68394 | 23170 ft | 369 kts | 243° |
| 2026-05-09 06:31 | 55.68562 | 91.64405 | 23667 ft | 373 kts | 243° |
| 2026-05-09 06:31 | 55.67308 | 91.60436 | 24107 ft | 375 kts | 243° |
| 2026-05-09 06:31 | 55.66028 | 91.56390 | 24560 ft | 377 kts | 243° |
| 2026-05-09 06:32 | 55.64741 | 91.52328 | 24997 ft | 379 kts | 243° |
| 2026-05-09 06:32 | 55.63444 | 91.48243 | 25426 ft | 382 kts | 243° |
| 2026-05-09 06:32 | 55.62139 | 91.44142 | 25852 ft | 384 kts | 243° |
| 2026-05-09 06:33 | 55.59502 | 91.35871 | 26690 ft | 388 kts | 243° |
| 2026-05-09 06:33 | 55.58166 | 91.31693 | 27092 ft | 391 kts | 243° |
| 2026-05-09 06:33 | 55.56822 | 91.27498 | 27486 ft | 393 kts | 243° |
| 2026-05-09 06:34 | 55.54113 | 91.19053 | 28259 ft | 397 kts | 243° |
| 2026-05-09 06:34 | 55.52745 | 91.14800 | 28635 ft | 400 kts | 243° |
| 2026-05-09 06:34 | 55.51300 | 91.10581 | 29019 ft | 403 kts | 240° |
| 2026-05-09 06:34 | 55.49782 | 91.06493 | 29381 ft | 405 kts | 240° |
| 2026-05-09 06:35 | 55.48224 | 91.02262 | 29733 ft | 407 kts | 240° |
| 2026-05-09 06:35 | 55.46702 | 90.98113 | 30074 ft | 409 kts | 240° |
| 2026-05-09 06:35 | 55.45152 | 90.93888 | 30371 ft | 411 kts | 240° |
| 2026-05-09 06:35 | 55.43595 | 90.89648 | 30640 ft | 413 kts | 240° |
| 2026-05-09 06:36 | 55.42028 | 90.85386 | 30920 ft | 416 kts | 240° |
| 2026-05-09 06:36 | 55.40453 | 90.81109 | 31200 ft | 418 kts | 240° |
| 2026-05-09 06:36 | 55.38867 | 90.76812 | 31479 ft | 420 kts | 240° |
| 2026-05-09 06:36 | 55.37273 | 90.72500 | 31760 ft | 422 kts | 240° |
| 2026-05-09 06:37 | 55.35664 | 90.68155 | 32050 ft | 423 kts | 240° |
| 2026-05-09 06:37 | 55.34598 | 90.65280 | 32273 ft | 423 kts | 240° |
| 2026-05-09 06:37 | 55.32990 | 90.60950 | 32658 ft | 423 kts | 240° |
| 2026-05-09 06:37 | 55.31386 | 90.56638 | 33016 ft | 422 kts | 240° |
| 2026-05-09 06:38 | 55.29775 | 90.52315 | 33369 ft | 422 kts | 240° |
| 2026-05-09 06:38 | 55.27646 | 90.46616 | 33851 ft | 421 kts | 240° |
| 2026-05-09 06:38 | 55.26558 | 90.43706 | 34054 ft | 421 kts | 240° |
| 2026-05-09 06:38 | 55.24953 | 90.39422 | 34368 ft | 421 kts | 240° |
| 2026-05-09 06:39 | 55.23345 | 90.35138 | 34658 ft | 420 kts | 240° |
| 2026-05-09 06:39 | 55.21739 | 90.30865 | 34955 ft | 420 kts | 240° |
| 2026-05-09 06:39 | 55.20157 | 90.26665 | 35242 ft | 419 kts | 240° |
| 2026-05-09 06:39 | 55.18553 | 90.22413 | 35523 ft | 418 kts | 240° |
| 2026-05-09 06:40 | 55.16950 | 90.18171 | 35810 ft | 418 kts | 240° |
| 2026-05-09 06:40 | 55.15345 | 90.13933 | 36081 ft | 417 kts | 240° |
| 2026-05-09 06:40 | 55.13743 | 90.09707 | 36345 ft | 417 kts | 240° |
| 2026-05-09 06:40 | 55.12142 | 90.05492 | 36594 ft | 416 kts | 240° |
| 2026-05-09 06:41 | 55.10536 | 90.01273 | 36853 ft | 416 kts | 240° |
| 2026-05-09 06:41 | 55.08934 | 89.97069 | 37116 ft | 415 kts | 240° |
| 2026-05-09 06:41 | 55.07334 | 89.92878 | 37338 ft | 415 kts | 240° |
| 2026-05-09 06:41 | 55.05731 | 89.88682 | 37577 ft | 415 kts | 239° |
| 2026-05-09 06:42 | 55.04131 | 89.84503 | 37809 ft | 414 kts | 239° |
| 2026-05-09 06:42 | 55.02446 | 89.80416 | 37868 ft | 417 kts | 233° |
| 2026-05-09 06:42 | 54.98702 | 89.72698 | 37880 ft | 416 kts | 233° |
| 2026-05-09 06:43 | 54.94963 | 89.65037 | 37881 ft | 416 kts | 233° |
| 2026-05-09 06:43 | 54.91231 | 89.57426 | 37874 ft | 416 kts | 233° |
| 2026-05-09 06:44 | 54.87467 | 89.49775 | 37870 ft | 416 kts | 233° |
| 2026-05-09 06:44 | 54.83703 | 89.42148 | 37873 ft | 416 kts | 233° |
| 2026-05-09 06:45 | 54.79937 | 89.34541 | 37869 ft | 416 kts | 233° |
| 2026-05-09 06:45 | 54.76184 | 89.26983 | 37858 ft | 416 kts | 233° |
| 2026-05-09 06:46 | 54.72400 | 89.19388 | 37857 ft | 416 kts | 233° |
| 2026-05-09 06:46 | 54.68617 | 89.11815 | 37862 ft | 416 kts | 232° |
| 2026-05-09 06:47 | 54.64822 | 89.04246 | 37855 ft | 416 kts | 232° |
| 2026-05-09 06:47 | 54.61025 | 88.96693 | 37874 ft | 417 kts | 232° |
| 2026-05-09 06:48 | 54.57217 | 88.89142 | 37857 ft | 417 kts | 232° |
| 2026-05-09 06:48 | 54.53400 | 88.81599 | 37866 ft | 417 kts | 232° |
| 2026-05-09 06:49 | 54.49577 | 88.74063 | 37872 ft | 418 kts | 232° |
| 2026-05-09 06:49 | 54.46041 | 88.66230 | 37883 ft | 411 kts | 243° |
| 2026-05-09 06:50 | 54.43070 | 88.57770 | 37880 ft | 414 kts | 242° |
| 2026-05-09 06:50 | 54.40098 | 88.49365 | 37876 ft | 414 kts | 242° |
| 2026-05-09 06:51 | 54.37109 | 88.40928 | 37876 ft | 414 kts | 241° |
| 2026-05-09 06:51 | 54.34112 | 88.32501 | 37883 ft | 414 kts | 241° |
| 2026-05-09 06:52 | 54.31108 | 88.24082 | 37891 ft | 414 kts | 241° |
| 2026-05-09 06:52 | 54.28096 | 88.15669 | 37887 ft | 414 kts | 241° |
| 2026-05-09 06:53 | 54.25080 | 88.07273 | 37902 ft | 414 kts | 241° |
| 2026-05-09 06:53 | 54.22058 | 87.98890 | 37894 ft | 414 kts | 241° |
| 2026-05-09 06:54 | 54.19034 | 87.90529 | 37900 ft | 413 kts | 241° |
| 2026-05-09 06:54 | 54.16008 | 87.82190 | 37894 ft | 413 kts | 241° |
| 2026-05-09 06:55 | 54.12997 | 87.73918 | 37900 ft | 413 kts | 241° |
| 2026-05-09 06:55 | 54.09955 | 87.65595 | 37896 ft | 413 kts | 241° |
| 2026-05-09 06:56 | 54.06910 | 87.57296 | 37898 ft | 413 kts | 241° |
| 2026-05-09 06:56 | 54.03862 | 87.49000 | 37916 ft | 413 kts | 241° |
| 2026-05-09 06:57 | 54.00812 | 87.40727 | 37910 ft | 413 kts | 241° |
| 2026-05-09 06:57 | 53.97756 | 87.32461 | 37915 ft | 413 kts | 241° |
| 2026-05-09 06:58 | 53.94694 | 87.24209 | 37920 ft | 413 kts | 241° |
| 2026-05-09 06:58 | 53.91626 | 87.15966 | 37930 ft | 413 kts | 240° |
| 2026-05-09 06:59 | 53.88552 | 87.07737 | 37934 ft | 413 kts | 240° |
| 2026-05-09 06:59 | 53.85477 | 86.99529 | 37935 ft | 413 kts | 240° |
| 2026-05-09 07:00 | 53.82396 | 86.91328 | 37940 ft | 412 kts | 241° |
| 2026-05-09 07:00 | 53.81183 | 86.86989 | 37911 ft | 406 kts | 257° |
| 2026-05-09 07:00 | 53.80546 | 86.82360 | 37950 ft | 405 kts | 258° |
| 2026-05-09 07:01 | 53.79325 | 86.73084 | 37944 ft | 407 kts | 259° |
| 2026-05-09 07:01 | 53.78164 | 86.63714 | 37938 ft | 407 kts | 259° |
| 2026-05-09 07:02 | 53.77019 | 86.54353 | 37937 ft | 406 kts | 259° |
| 2026-05-09 07:02 | 53.75872 | 86.45005 | 37932 ft | 406 kts | 259° |
| 2026-05-09 07:03 | 53.74719 | 86.35671 | 37921 ft | 406 kts | 259° |
| 2026-05-09 07:03 | 53.73557 | 86.26335 | 37902 ft | 406 kts | 259° |
| 2026-05-09 07:04 | 53.72393 | 86.17030 | 37926 ft | 405 kts | 259° |
| 2026-05-09 07:04 | 53.71222 | 86.07726 | 37916 ft | 405 kts | 259° |
| 2026-05-09 07:05 | 53.70044 | 85.98417 | 37916 ft | 405 kts | 259° |
| 2026-05-09 07:05 | 53.68867 | 85.89178 | 37918 ft | 405 kts | 259° |
| 2026-05-09 07:06 | 53.67678 | 85.79902 | 37914 ft | 405 kts | 259° |
| 2026-05-09 07:06 | 53.66481 | 85.70634 | 37911 ft | 404 kts | 259° |
| 2026-05-09 07:07 | 53.65277 | 85.61362 | 37907 ft | 404 kts | 259° |
| 2026-05-09 07:07 | 53.64067 | 85.52109 | 37903 ft | 404 kts | 259° |
| 2026-05-09 07:08 | 53.62850 | 85.42868 | 37907 ft | 404 kts | 259° |
| 2026-05-09 07:08 | 53.61627 | 85.33629 | 37903 ft | 404 kts | 259° |
| 2026-05-09 07:09 | 53.60399 | 85.24407 | 37905 ft | 403 kts | 259° |
| 2026-05-09 07:09 | 53.59167 | 85.15200 | 37896 ft | 403 kts | 259° |
| 2026-05-09 07:10 | 53.57937 | 85.06055 | 37897 ft | 403 kts | 258° |
| 2026-05-09 07:10 | 53.56695 | 84.96873 | 37896 ft | 402 kts | 258° |
| 2026-05-09 07:11 | 53.55447 | 84.87704 | 37891 ft | 402 kts | 258° |
| 2026-05-09 07:11 | 53.54194 | 84.78555 | 37893 ft | 402 kts | 258° |
| 2026-05-09 07:12 | 53.52933 | 84.69404 | 37888 ft | 402 kts | 258° |
| 2026-05-09 07:12 | 53.51666 | 84.60268 | 37884 ft | 402 kts | 258° |
| 2026-05-09 07:13 | 53.50392 | 84.51129 | 37895 ft | 402 kts | 258° |
| 2026-05-09 07:13 | 53.49112 | 84.42006 | 37883 ft | 402 kts | 258° |
| 2026-05-09 07:14 | 53.47824 | 84.32878 | 37890 ft | 401 kts | 258° |
| 2026-05-09 07:14 | 53.46529 | 84.23754 | 37887 ft | 402 kts | 258° |
| 2026-05-09 07:15 | 53.45237 | 84.14703 | 37881 ft | 402 kts | 258° |
| 2026-05-09 07:15 | 53.43921 | 84.05540 | 37884 ft | 401 kts | 258° |
| 2026-05-09 07:16 | 53.42615 | 83.96499 | 37878 ft | 401 kts | 258° |
| 2026-05-09 07:16 | 53.41293 | 83.87402 | 37875 ft | 401 kts | 258° |
| 2026-05-09 07:17 | 53.39965 | 83.78318 | 37881 ft | 401 kts | 258° |
| 2026-05-09 07:17 | 53.38630 | 83.69237 | 37878 ft | 401 kts | 258° |
| 2026-05-09 07:18 | 53.37288 | 83.60156 | 37886 ft | 401 kts | 257° |
| 2026-05-09 07:18 | 53.36091 | 83.51036 | 37896 ft | 401 kts | 261° |
| 2026-05-09 07:19 | 53.35044 | 83.41860 | 37881 ft | 401 kts | 260° |
| 2026-05-09 07:19 | 53.33968 | 83.32701 | 37874 ft | 401 kts | 260° |
| 2026-05-09 07:20 | 53.32881 | 83.23542 | 37861 ft | 401 kts | 260° |
| 2026-05-09 07:20 | 53.31796 | 83.14456 | 37859 ft | 401 kts | 260° |
| 2026-05-09 07:21 | 53.30696 | 83.05306 | 37850 ft | 401 kts | 260° |
| 2026-05-09 07:21 | 53.30021 | 83.00781 | 37830 ft | 403 kts | 249° |
| 2026-05-09 07:21 | 53.28699 | 82.96654 | 37862 ft | 404 kts | 243° |
| 2026-05-09 07:22 | 53.25854 | 82.88484 | 37844 ft | 407 kts | 242° |
| 2026-05-09 07:22 | 53.22932 | 82.80380 | 37836 ft | 407 kts | 242° |
| 2026-05-09 07:23 | 53.19982 | 82.72317 | 37827 ft | 407 kts | 242° |
| 2026-05-09 07:23 | 53.17020 | 82.64261 | 37825 ft | 407 kts | 242° |
| 2026-05-09 07:24 | 53.14056 | 82.56222 | 37822 ft | 407 kts | 241° |
| 2026-05-09 07:24 | 53.11086 | 82.48197 | 37821 ft | 407 kts | 241° |
| 2026-05-09 07:25 | 53.08133 | 82.40241 | 37814 ft | 407 kts | 241° |
| 2026-05-09 07:25 | 53.05155 | 82.32245 | 37817 ft | 407 kts | 241° |
| 2026-05-09 07:26 | 53.02171 | 82.24257 | 37807 ft | 406 kts | 241° |
| 2026-05-09 07:26 | 52.99670 | 82.17582 | 37808 ft | 406 kts | 241° |
| 2026-05-09 07:27 | 52.96700 | 82.09677 | 37807 ft | 406 kts | 241° |
| 2026-05-09 07:27 | 52.93707 | 82.01737 | 37804 ft | 406 kts | 240° |
| 2026-05-09 07:28 | 52.90713 | 81.93817 | 37797 ft | 405 kts | 240° |
| 2026-05-09 07:28 | 52.87712 | 81.85907 | 37797 ft | 405 kts | 240° |
| 2026-05-09 07:29 | 52.84713 | 81.78016 | 37799 ft | 405 kts | 240° |
| 2026-05-09 07:29 | 52.81700 | 81.70142 | 37789 ft | 405 kts | 240° |
| 2026-05-09 07:30 | 52.78681 | 81.62270 | 37786 ft | 405 kts | 240° |
| 2026-05-09 07:30 | 52.75683 | 81.54476 | 37782 ft | 405 kts | 240° |
| 2026-05-09 07:31 | 52.72656 | 81.46632 | 37777 ft | 404 kts | 240° |
| 2026-05-09 07:31 | 52.69628 | 81.38807 | 37778 ft | 404 kts | 240° |
| 2026-05-09 07:32 | 52.66591 | 81.30987 | 37771 ft | 404 kts | 240° |
| 2026-05-09 07:32 | 52.63554 | 81.23187 | 37770 ft | 404 kts | 239° |
| 2026-05-09 07:33 | 52.58988 | 81.11510 | 37771 ft | 404 kts | 239° |
| 2026-05-09 07:34 | 52.55943 | 81.03749 | 37776 ft | 404 kts | 239° |
| 2026-05-09 07:34 | 52.52890 | 80.95995 | 37773 ft | 404 kts | 239° |
| 2026-05-09 07:35 | 52.49830 | 80.88246 | 37763 ft | 404 kts | 239° |
| 2026-05-09 07:35 | 52.46766 | 80.80508 | 37777 ft | 404 kts | 239° |
| 2026-05-09 07:36 | 52.43716 | 80.72831 | 37767 ft | 404 kts | 239° |
| 2026-05-09 07:36 | 52.40638 | 80.65106 | 37765 ft | 404 kts | 239° |
| 2026-05-09 07:37 | 52.37557 | 80.57396 | 37767 ft | 404 kts | 239° |
| 2026-05-09 07:37 | 52.34468 | 80.49691 | 37770 ft | 405 kts | 239° |
| 2026-05-09 07:38 | 52.31374 | 80.41998 | 37768 ft | 404 kts | 239° |
| 2026-05-09 07:38 | 52.28282 | 80.34329 | 37764 ft | 404 kts | 238° |
| 2026-05-09 07:39 | 52.25180 | 80.26662 | 37770 ft | 404 kts | 238° |
| 2026-05-09 07:39 | 52.22077 | 80.19013 | 37762 ft | 404 kts | 238° |
| 2026-05-09 07:40 | 52.18966 | 80.11371 | 37762 ft | 404 kts | 238° |
| 2026-05-09 07:40 | 52.15854 | 80.03743 | 37768 ft | 404 kts | 238° |
| 2026-05-09 07:41 | 52.12759 | 79.96184 | 37785 ft | 404 kts | 238° |
| 2026-05-09 07:41 | 52.09641 | 79.88591 | 37841 ft | 403 kts | 238° |
| 2026-05-09 07:42 | 52.06522 | 79.81016 | 37887 ft | 403 kts | 238° |
| 2026-05-09 07:42 | 52.03401 | 79.73458 | 37927 ft | 403 kts | 238° |
| 2026-05-09 07:43 | 52.00276 | 79.65914 | 37961 ft | 402 kts | 238° |
| 2026-05-09 07:43 | 51.97146 | 79.58382 | 37973 ft | 402 kts | 238° |
| 2026-05-09 07:44 | 51.94015 | 79.50866 | 37966 ft | 402 kts | 238° |
| 2026-05-09 07:44 | 51.90884 | 79.43368 | 37945 ft | 402 kts | 238° |
| 2026-05-09 07:45 | 51.87746 | 79.35873 | 37906 ft | 402 kts | 237° |
| 2026-05-09 07:45 | 51.84637 | 79.28435 | 37863 ft | 401 kts | 240° |
| 2026-05-09 07:45 | 51.83543 | 79.24343 | 37817 ft | 397 kts | 257° |
| 2026-05-09 07:46 | 51.83157 | 79.19917 | 37819 ft | 399 kts | 262° |
| 2026-05-09 07:46 | 51.82639 | 79.10943 | 37762 ft | 401 kts | 263° |
| 2026-05-09 07:47 | 51.82204 | 79.01948 | 37766 ft | 401 kts | 264° |
| 2026-05-09 07:47 | 51.81793 | 78.92957 | 37767 ft | 401 kts | 264° |
| 2026-05-09 07:48 | 51.81379 | 78.83969 | 37764 ft | 401 kts | 264° |
| 2026-05-09 07:48 | 51.80960 | 78.74991 | 37767 ft | 400 kts | 264° |
| 2026-05-09 07:49 | 51.80534 | 78.66018 | 37767 ft | 400 kts | 263° |
| 2026-05-09 07:49 | 51.80102 | 78.57061 | 37767 ft | 400 kts | 263° |
| 2026-05-09 07:50 | 51.79664 | 78.48112 | 37767 ft | 400 kts | 263° |
| 2026-05-09 07:50 | 51.79218 | 78.39161 | 37764 ft | 400 kts | 263° |
| 2026-05-09 07:51 | 51.78767 | 78.30244 | 37764 ft | 400 kts | 263° |
| 2026-05-09 07:51 | 51.78308 | 78.21290 | 37764 ft | 400 kts | 263° |
| 2026-05-09 07:52 | 51.77842 | 78.12335 | 37762 ft | 400 kts | 263° |
| 2026-05-09 07:52 | 51.77369 | 78.03389 | 37761 ft | 400 kts | 262° |
| 2026-05-09 07:53 | 51.76890 | 77.94441 | 37764 ft | 400 kts | 262° |
| 2026-05-09 07:53 | 51.76405 | 77.85479 | 37761 ft | 401 kts | 262° |
| 2026-05-09 07:54 | 51.75909 | 77.76504 | 37760 ft | 402 kts | 262° |
| 2026-05-09 07:54 | 51.75407 | 77.67516 | 37759 ft | 402 kts | 262° |
| 2026-05-09 07:55 | 51.74898 | 77.58517 | 37751 ft | 403 kts | 262° |
| 2026-05-09 07:55 | 51.74384 | 77.49559 | 37767 ft | 404 kts | 262° |
| 2026-05-09 07:56 | 51.73860 | 77.40537 | 37758 ft | 404 kts | 262° |
| 2026-05-09 07:56 | 51.73328 | 77.31511 | 37762 ft | 404 kts | 262° |
| 2026-05-09 07:57 | 51.72790 | 77.22481 | 37763 ft | 405 kts | 262° |
| 2026-05-09 07:57 | 51.72243 | 77.13449 | 37762 ft | 405 kts | 262° |
| 2026-05-09 07:58 | 51.71690 | 77.04422 | 37760 ft | 405 kts | 262° |
| 2026-05-09 07:58 | 51.71128 | 76.95375 | 37763 ft | 405 kts | 262° |
| 2026-05-09 07:59 | 51.70560 | 76.86338 | 37761 ft | 405 kts | 262° |
| 2026-05-09 07:59 | 51.69984 | 76.77286 | 37763 ft | 406 kts | 262° |
| 2026-05-09 08:00 | 51.69402 | 76.68233 | 37760 ft | 406 kts | 262° |
| 2026-05-09 08:00 | 51.68812 | 76.59188 | 37760 ft | 406 kts | 262° |
| 2026-05-09 08:01 | 51.68215 | 76.50132 | 37760 ft | 406 kts | 262° |
| 2026-05-09 08:01 | 51.67610 | 76.41071 | 37761 ft | 407 kts | 261° |
| 2026-05-09 08:02 | 51.66998 | 76.32007 | 37762 ft | 407 kts | 261° |
| 2026-05-09 08:02 | 51.66379 | 76.22939 | 37763 ft | 407 kts | 261° |
| 2026-05-09 08:03 | 51.65755 | 76.13912 | 37760 ft | 408 kts | 261° |
| 2026-05-09 08:03 | 51.65121 | 76.04840 | 37762 ft | 408 kts | 261° |
| 2026-05-09 08:04 | 51.64481 | 75.95769 | 37762 ft | 408 kts | 261° |
| 2026-05-09 08:04 | 51.63832 | 75.86701 | 37770 ft | 408 kts | 261° |
| 2026-05-09 08:05 | 51.63176 | 75.77613 | 37766 ft | 409 kts | 261° |
| 2026-05-09 08:05 | 51.62511 | 75.68512 | 37769 ft | 409 kts | 261° |
| 2026-05-09 08:06 | 51.61839 | 75.59413 | 37771 ft | 409 kts | 261° |
| 2026-05-09 08:06 | 51.61161 | 75.50326 | 37769 ft | 410 kts | 261° |
| 2026-05-09 08:07 | 51.60473 | 75.41217 | 37771 ft | 410 kts | 261° |
| 2026-05-09 08:07 | 51.59782 | 75.32115 | 37769 ft | 410 kts | 261° |
| 2026-05-09 08:08 | 51.59076 | 75.23017 | 37770 ft | 410 kts | 258° |
| 2026-05-09 08:08 | 51.57785 | 75.14132 | 37763 ft | 409 kts | 256° |
| 2026-05-09 08:09 | 51.56541 | 75.05282 | 37774 ft | 409 kts | 256° |
| 2026-05-09 08:09 | 51.55302 | 74.96372 | 37780 ft | 409 kts | 256° |
| 2026-05-09 08:10 | 51.54059 | 74.87461 | 37766 ft | 409 kts | 256° |
| 2026-05-09 08:10 | 51.52810 | 74.78565 | 37773 ft | 408 kts | 256° |
| 2026-05-09 08:11 | 51.51553 | 74.69670 | 37766 ft | 408 kts | 256° |
| 2026-05-09 08:11 | 51.50290 | 74.60779 | 37774 ft | 408 kts | 256° |
| 2026-05-09 08:12 | 51.48385 | 74.47465 | 37772 ft | 408 kts | 256° |
| 2026-05-09 08:12 | 51.47323 | 74.40089 | 37776 ft | 408 kts | 255° |
| 2026-05-09 08:13 | 51.46039 | 74.31228 | 37769 ft | 408 kts | 255° |
| 2026-05-09 08:13 | 51.44750 | 74.22379 | 37750 ft | 407 kts | 255° |
| 2026-05-09 08:14 | 51.44109 | 74.17993 | 37253 ft | 402 kts | 255° |
| 2026-05-09 08:14 | 51.43471 | 74.13648 | 36704 ft | 399 kts | 255° |
| 2026-05-09 08:14 | 51.42839 | 74.09349 | 36213 ft | 394 kts | 255° |
| 2026-05-09 08:14 | 51.42211 | 74.05091 | 35718 ft | 391 kts | 255° |
| 2026-05-09 08:15 | 51.41587 | 74.00879 | 35220 ft | 387 kts | 255° |
| 2026-05-09 08:15 | 51.40967 | 73.96699 | 34738 ft | 384 kts | 255° |
| 2026-05-09 08:15 | 51.40350 | 73.92550 | 34253 ft | 381 kts | 255° |
| 2026-05-09 08:15 | 51.39740 | 73.88456 | 33765 ft | 373 kts | 255° |
| 2026-05-09 08:16 | 51.39143 | 73.84462 | 33245 ft | 367 kts | 255° |
| 2026-05-09 08:16 | 51.38549 | 73.80497 | 32754 ft | 364 kts | 255° |
| 2026-05-09 08:16 | 51.37963 | 73.76595 | 32306 ft | 358 kts | 255° |
| 2026-05-09 08:16 | 51.37384 | 73.72751 | 31885 ft | 353 kts | 255° |
| 2026-05-09 08:17 | 51.36809 | 73.68945 | 31462 ft | 349 kts | 255° |
| 2026-05-09 08:17 | 51.36242 | 73.65195 | 31050 ft | 345 kts | 255° |
| 2026-05-09 08:17 | 51.35678 | 73.61481 | 30643 ft | 341 kts | 254° |
| 2026-05-09 08:17 | 51.35120 | 73.57811 | 30257 ft | 338 kts | 254° |
| 2026-05-09 08:18 | 51.34568 | 73.54183 | 29866 ft | 334 kts | 254° |
| 2026-05-09 08:18 | 51.34019 | 73.50593 | 29441 ft | 330 kts | 254° |
| 2026-05-09 08:18 | 51.33478 | 73.47056 | 29051 ft | 325 kts | 254° |
| 2026-05-09 08:18 | 51.32943 | 73.43569 | 28680 ft | 321 kts | 254° |
| 2026-05-09 08:19 | 51.32421 | 73.40175 | 28336 ft | 316 kts | 254° |
| 2026-05-09 08:19 | 51.31900 | 73.36791 | 27996 ft | 312 kts | 254° |
| 2026-05-09 08:19 | 51.31385 | 73.33453 | 27658 ft | 307 kts | 254° |
| 2026-05-09 08:19 | 51.30875 | 73.30160 | 27338 ft | 303 kts | 254° |
| 2026-05-09 08:20 | 51.30371 | 73.26906 | 26999 ft | 305 kts | 254° |
| 2026-05-09 08:20 | 51.29856 | 73.23592 | 26653 ft | 309 kts | 254° |
| 2026-05-09 08:20 | 51.29334 | 73.20240 | 26326 ft | 312 kts | 254° |
| 2026-05-09 08:20 | 51.28809 | 73.16875 | 26010 ft | 311 kts | 253° |
| 2026-05-09 08:21 | 51.28287 | 73.13529 | 25684 ft | 310 kts | 253° |
| 2026-05-09 08:21 | 51.27765 | 73.10191 | 25358 ft | 309 kts | 253° |
| 2026-05-09 08:21 | 51.27246 | 73.06876 | 25041 ft | 307 kts | 253° |
| 2026-05-09 08:21 | 51.26729 | 73.03579 | 24727 ft | 305 kts | 253° |
| 2026-05-09 08:22 | 51.26213 | 73.00295 | 24410 ft | 304 kts | 253° |
| 2026-05-09 08:22 | 51.25698 | 72.97025 | 24100 ft | 303 kts | 253° |
| 2026-05-09 08:22 | 51.25182 | 72.93771 | 23743 ft | 302 kts | 253° |
| 2026-05-09 08:22 | 51.24660 | 72.90520 | 23306 ft | 302 kts | 253° |
| 2026-05-09 08:23 | 51.24143 | 72.87284 | 22900 ft | 300 kts | 253° |
| 2026-05-09 08:23 | 51.23630 | 72.84077 | 22506 ft | 298 kts | 253° |
| 2026-05-09 08:23 | 51.23119 | 72.80887 | 22106 ft | 296 kts | 253° |
| 2026-05-09 08:23 | 51.22610 | 72.77717 | 21705 ft | 294 kts | 253° |
| 2026-05-09 08:24 | 51.22103 | 72.74560 | 21308 ft | 293 kts | 253° |
| 2026-05-09 08:24 | 51.21597 | 72.71419 | 20911 ft | 292 kts | 253° |
| 2026-05-09 08:24 | 51.21092 | 72.68291 | 20514 ft | 291 kts | 253° |
| 2026-05-09 08:24 | 51.20588 | 72.65173 | 20122 ft | 290 kts | 253° |
| 2026-05-09 08:25 | 51.20091 | 72.62100 | 19740 ft | 289 kts | 253° |
| 2026-05-09 08:25 | 51.19587 | 72.58997 | 19346 ft | 289 kts | 253° |
| 2026-05-09 08:25 | 51.19084 | 72.55901 | 18957 ft | 288 kts | 253° |
| 2026-05-09 08:25 | 51.18580 | 72.52809 | 18565 ft | 288 kts | 253° |
| 2026-05-09 08:26 | 51.18077 | 72.49721 | 18177 ft | 288 kts | 253° |
| 2026-05-09 08:26 | 51.17571 | 72.46626 | 17745 ft | 288 kts | 253° |
| 2026-05-09 08:26 | 51.17069 | 72.43558 | 17333 ft | 282 kts | 253° |
| 2026-05-09 08:26 | 51.16574 | 72.40546 | 16981 ft | 280 kts | 253° |
| 2026-05-09 08:27 | 51.16083 | 72.37557 | 16634 ft | 278 kts | 253° |
| 2026-05-09 08:27 | 51.15595 | 72.34588 | 16272 ft | 276 kts | 253° |
| 2026-05-09 08:27 | 51.15107 | 72.31634 | 15900 ft | 276 kts | 253° |
| 2026-05-09 08:27 | 51.14620 | 72.28683 | 15528 ft | 275 kts | 253° |
| 2026-05-09 08:28 | 51.14133 | 72.25739 | 15153 ft | 275 kts | 254° |
| 2026-05-09 08:28 | 51.13644 | 72.22790 | 14771 ft | 275 kts | 254° |
| 2026-05-09 08:28 | 51.13155 | 72.19847 | 14398 ft | 275 kts | 254° |
| 2026-05-09 08:28 | 51.12664 | 72.16896 | 14022 ft | 276 kts | 254° |
| 2026-05-09 08:29 | 51.12172 | 72.13943 | 13648 ft | 276 kts | 254° |
| 2026-05-09 08:29 | 51.11679 | 72.10986 | 13245 ft | 277 kts | 253° |
| 2026-05-09 08:29 | 51.11184 | 72.08028 | 12848 ft | 276 kts | 253° |
| 2026-05-09 08:29 | 51.10690 | 72.05078 | 12478 ft | 276 kts | 253° |
| 2026-05-09 08:30 | 51.10196 | 72.02133 | 12100 ft | 275 kts | 253° |
| 2026-05-09 08:30 | 51.09702 | 71.99196 | 11732 ft | 274 kts | 253° |
| 2026-05-09 08:30 | 51.09209 | 71.96266 | 11366 ft | 274 kts | 253° |
| 2026-05-09 08:30 | 51.08715 | 71.93335 | 11001 ft | 274 kts | 253° |
| 2026-05-09 08:31 | 51.08222 | 71.90419 | 10624 ft | 270 kts | 253° |
| 2026-05-09 08:31 | 51.07745 | 71.87594 | 10287 ft | 260 kts | 253° |
| 2026-05-09 08:31 | 51.07284 | 71.84876 | 9985 ft | 249 kts | 253° |
| 2026-05-09 08:31 | 51.06846 | 71.82296 | 9652 ft | 241 kts | 252° |
| 2026-05-09 08:32 | 51.06415 | 71.79764 | 9300 ft | 233 kts | 252° |
| 2026-05-09 08:32 | 51.05999 | 71.77324 | 8987 ft | 225 kts | 252° |
| 2026-05-09 08:32 | 51.05212 | 71.72700 | 8430 ft | 207 kts | 252° |
| 2026-05-09 08:33 | 51.04842 | 71.70534 | 8181 ft | 199 kts | 252° |
| 2026-05-09 08:33 | 51.04484 | 71.68443 | 7953 ft | 194 kts | 252° |
| 2026-05-09 08:33 | 51.04138 | 71.66424 | 7750 ft | 186 kts | 252° |
| 2026-05-09 08:33 | 51.03803 | 71.64469 | 7549 ft | 180 kts | 252° |
| 2026-05-09 08:34 | 51.03473 | 71.62546 | 7365 ft | 181 kts | 252° |
| 2026-05-09 08:34 | 51.03140 | 71.60607 | 7166 ft | 182 kts | 252° |
| 2026-05-09 08:34 | 51.02805 | 71.58661 | 6950 ft | 183 kts | 252° |
| 2026-05-09 08:34 | 51.02472 | 71.56720 | 6721 ft | 182 kts | 252° |
| 2026-05-09 08:35 | 51.02141 | 71.54795 | 6500 ft | 176 kts | 252° |
| 2026-05-09 08:35 | 51.01824 | 71.52955 | 6287 ft | 170 kts | 252° |
| 2026-05-09 08:35 | 51.01517 | 71.51176 | 6062 ft | 164 kts | 252° |
| 2026-05-09 08:35 | 51.01441 | 71.49367 | 5848 ft | 171 kts | 282° |
| 2026-05-09 08:36 | 51.02205 | 71.47886 | 5628 ft | 187 kts | 325° |
| 2026-05-09 08:36 | 51.03531 | 71.47621 | 5449 ft | 205 kts | 9° |
| 2026-05-09 08:36 | 51.04719 | 71.48889 | 5273 ft | 212 kts | 53° |
| 2026-05-09 08:36 | 51.05535 | 71.50823 | 5175 ft | 212 kts | 52° |
| 2026-05-09 08:37 | 51.06454 | 71.52615 | 4953 ft | 206 kts | 47° |
| 2026-05-09 08:37 | 51.07387 | 71.54310 | 4746 ft | 200 kts | 48° |
| 2026-05-09 08:37 | 51.08264 | 71.55934 | 4576 ft | 188 kts | 46° |
| 2026-05-09 08:37 | 51.09154 | 71.57415 | 4426 ft | 183 kts | 43° |
| 2026-05-09 08:38 | 51.10055 | 71.58827 | 4296 ft | 182 kts | 42° |
| 2026-05-09 08:38 | 51.10955 | 71.60233 | 4145 ft | 181 kts | 41° |
| 2026-05-09 08:38 | 51.11816 | 71.61704 | 3982 ft | 183 kts | 56° |
| 2026-05-09 08:38 | 51.12016 | 71.63588 | 3620 ft | 168 kts | 119° |
| 2026-05-09 08:39 | 51.11272 | 71.64656 | 3565 ft | 136 kts | 182° |
| 2026-05-09 08:39 | 51.10527 | 71.64103 | 3625 ft | 121 kts | 244° |
| 2026-05-09 08:39 | 51.10315 | 71.62789 | 3690 ft | 127 kts | 253° |
| 2026-05-09 08:39 | 51.10044 | 71.61465 | 3364 ft | 125 kts | 246° |
| 2026-05-09 08:40 | 51.09715 | 71.60172 | 2996 ft | 126 kts | 246° |
| 2026-05-09 08:40 | 51.09318 | 71.58928 | 2776 ft | 126 kts | 237° |
| 2026-05-09 08:40 | 51.08810 | 71.57794 | 2513 ft | 126 kts | 235° |
| 2026-05-09 08:40 | 51.08283 | 71.56697 | 2321 ft | 124 kts | 233° |
| 2026-05-09 08:41 | 51.07742 | 71.55631 | 2096 ft | 123 kts | 233° |
| 2026-05-09 08:41 | 51.07203 | 71.54544 | 1962 ft | 128 kts | 233° |
| 2026-05-09 08:41 | 51.06624 | 71.53447 | 1842 ft | 132 kts | 228° |
| 2026-05-09 08:41 | 51.05956 | 71.52429 | 1774 ft | 133 kts | 225° |
| 2026-05-09 08:42 | 51.05294 | 71.51382 | 1642 ft | 134 kts | 226° |
| 2026-05-09 08:42 | 51.04647 | 71.50342 | 1468 ft | 134 kts | 226° |
| 2026-05-09 08:42 | 51.03965 | 71.49308 | 1344 ft | 136 kts | 225° |
| 2026-05-09 08:42 | 51.03284 | 71.48228 | 1204 ft | 144 kts | 226° |
| 2026-05-09 08:43 | 51.02623 | 71.47192 | 1168 ft | 115 kts | 225° |
| 2026-05-09 08:43 | 51.02151 | 71.46456 | 1168 ft | 76 kts | 224° |
| 2026-05-09 08:43 | 51.01883 | 71.46036 | 1170 ft | 39 kts | 225° |
| 2026-05-09 08:43 | 51.01718 | 71.45778 | 1169 ft | 18 kts | 225° |
| 2026-05-09 08:44 | 51.01711 | 71.45629 | 1167 ft | 13 kts | 316° |
| 2026-05-09 08:44 | 51.01767 | 71.45541 | 1166 ft | 0 kts | 314° |
| 2026-05-09 08:45 | 51.01768 | 71.45540 | 1166 ft | 1 kts | 314° |
| 2026-05-09 08:45 | 51.01791 | 71.45506 | 1163 ft | 9 kts | 326° |
| 2026-05-09 08:45 | 51.01858 | 71.45537 | 1164 ft | 12 kts | 45° |
| 2026-05-09 08:45 | 51.01934 | 71.45656 | 1166 ft | 19 kts | 44° |
| 2026-05-09 08:46 | 51.02034 | 71.45810 | 1166 ft | 21 kts | 45° |
| 2026-05-09 08:46 | 51.02142 | 71.45980 | 1166 ft | 23 kts | 44° |
| 2026-05-09 08:46 | 51.02254 | 71.46154 | 1164 ft | 21 kts | 44° |
| 2026-05-09 08:46 | 51.02333 | 71.46242 | 1163 ft | 12 kts | 356° |
| 2026-05-09 08:47 | 51.02405 | 71.46154 | 1164 ft | 14 kts | 314° |
| 2026-05-09 08:47 | 51.02478 | 71.46035 | 1164 ft | 9 kts | 315° |
| 2026-05-09 08:47 | 51.02507 | 71.45957 | 1165 ft | 9 kts | 269° |
| 2026-05-09 08:47 | 51.02479 | 71.45885 | 1165 ft | 1 kts | 221° |
| 2026-05-09 08:48 | 51.02470 | 71.45870 | 1166 ft | 3 kts | 223° |
| 2026-05-09 08:48 | 51.02469 | 71.45869 | 1166 ft | 0 kts | 223° |
| 2026-05-09 08:50 | 51.02478 | 71.45884 | 1165 ft | 0 kts | 44° |